sensor_id;sensor_type;location;lat;lon;timestamp;P1;durP1;ratioP1;P2;durP2;ratioP2
13985;SDS011;7067;51.832;8.296;2023-02-15T00:00:06;31.53;;;21.67;;
13985;SDS011;7067;51.832;8.296;2023-02-15T00:02:35;25.90;;;21.83;;
13985;SDS011;7067;51.832;8.296;2023-02-15T00:05:00;24.50;;;20.83;;
13985;SDS011;7067;51.832;8.296;2023-02-15T00:07:25;28.13;;;21.60;;
13985;SDS011;7067;51.832;8.296;2023-02-15T00:09:51;22.40;;;20.07;;
13985;SDS011;7067;51.832;8.296;2023-02-15T00:12:16;26.90;;;21.80;;
13985;SDS011;7067;51.832;8.296;2023-02-15T00:14:42;26.60;;;22.23;;
13985;SDS011;7067;51.832;8.296;2023-02-15T00:17:07;24.30;;;21.20;;
13985;SDS011;7067;51.832;8.296;2023-02-15T00:19:32;26.37;;;21.10;;
13985;SDS011;7067;51.832;8.296;2023-02-15T00:21:58;29.73;;;21.53;;
13985;SDS011;7067;51.832;8.296;2023-02-15T00:24:23;25.57;;;20.70;;
13985;SDS011;7067;51.832;8.296;2023-02-15T00:26:49;23.47;;;20.37;;
13985;SDS011;7067;51.832;8.296;2023-02-15T00:29:16;24.40;;;21.73;;
13985;SDS011;7067;51.832;8.296;2023-02-15T00:31:42;24.73;;;22.00;;
13985;SDS011;7067;51.832;8.296;2023-02-15T00:34:10;24.90;;;21.80;;
13985;SDS011;7067;51.832;8.296;2023-02-15T00:39:02;24.40;;;19.70;;
13985;SDS011;7067;51.832;8.296;2023-02-15T00:41:29;24.93;;;19.87;;
13985;SDS011;7067;51.832;8.296;2023-02-15T00:43:55;24.13;;;21.30;;
13985;SDS011;7067;51.832;8.296;2023-02-15T00:46:20;23.27;;;20.70;;
13985;SDS011;7067;51.832;8.296;2023-02-15T00:48:46;24.20;;;21.00;;
13985;SDS011;7067;51.832;8.296;2023-02-15T00:51:11;25.63;;;20.47;;
13985;SDS011;7067;51.832;8.296;2023-02-15T00:53:36;23.80;;;20.17;;
13985;SDS011;7067;51.832;8.296;2023-02-15T00:56:02;25.93;;;21.10;;
13985;SDS011;7067;51.832;8.296;2023-02-15T00:58:27;28.33;;;21.60;;
13985;SDS011;7067;51.832;8.296;2023-02-15T01:00:52;25.23;;;21.03;;
13985;SDS011;7067;51.832;8.296;2023-02-15T01:03:18;23.47;;;20.00;;
13985;SDS011;7067;51.832;8.296;2023-02-15T01:05:45;23.13;;;20.27;;
13985;SDS011;7067;51.832;8.296;2023-02-15T01:08:11;24.83;;;20.10;;
13985;SDS011;7067;51.832;8.296;2023-02-15T01:10:37;22.97;;;20.07;;
13985;SDS011;7067;51.832;8.296;2023-02-15T01:13:03;22.00;;;19.63;;
13985;SDS011;7067;51.832;8.296;2023-02-15T01:15:28;27.50;;;21.53;;
13985;SDS011;7067;51.832;8.296;2023-02-15T01:17:53;26.13;;;21.60;;
13985;SDS011;7067;51.832;8.296;2023-02-15T01:20:20;26.67;;;19.87;;
13985;SDS011;7067;51.832;8.296;2023-02-15T01:22:46;23.30;;;19.57;;
13985;SDS011;7067;51.832;8.296;2023-02-15T01:25:12;27.63;;;20.83;;
13985;SDS011;7067;51.832;8.296;2023-02-15T01:27:37;26.00;;;20.90;;
13985;SDS011;7067;51.832;8.296;2023-02-15T01:30:03;23.40;;;20.43;;
13985;SDS011;7067;51.832;8.296;2023-02-15T01:32:29;22.10;;;19.73;;
13985;SDS011;7067;51.832;8.296;2023-02-15T01:34:55;22.20;;;19.80;;
13985;SDS011;7067;51.832;8.296;2023-02-15T01:37:20;24.33;;;20.20;;
13985;SDS011;7067;51.832;8.296;2023-02-15T01:39:45;21.43;;;17.90;;
13985;SDS011;7067;51.832;8.296;2023-02-15T01:42:11;24.97;;;20.73;;
13985;SDS011;7067;51.832;8.296;2023-02-15T01:44:58;22.73;;;19.83;;
13985;SDS011;7067;51.832;8.296;2023-02-15T01:47:43;22.03;;;19.73;;
13985;SDS011;7067;51.832;8.296;2023-02-15T01:50:53;22.33;;;19.93;;
13985;SDS011;7067;51.832;8.296;2023-02-15T01:55:40;23.90;;;20.37;;
13985;SDS011;7067;51.832;8.296;2023-02-15T01:58:09;22.67;;;19.37;;
13985;SDS011;7067;51.832;8.296;2023-02-15T02:00:34;24.23;;;19.53;;
13985;SDS011;7067;51.832;8.296;2023-02-15T02:03:00;21.97;;;19.17;;
13985;SDS011;7067;51.832;8.296;2023-02-15T02:05:26;23.13;;;19.77;;
13985;SDS011;7067;51.832;8.296;2023-02-15T02:07:52;24.47;;;19.87;;
13985;SDS011;7067;51.832;8.296;2023-02-15T02:10:21;24.03;;;21.03;;
13985;SDS011;7067;51.832;8.296;2023-02-15T02:12:51;25.02;;;20.30;;
13985;SDS011;7067;51.832;8.296;2023-02-15T02:15:18;24.77;;;20.30;;
13985;SDS011;7067;51.832;8.296;2023-02-15T02:22:59;22.23;;;19.63;;
13985;SDS011;7067;51.832;8.296;2023-02-15T02:39:12;22.43;;;19.20;;
13985;SDS011;7067;51.832;8.296;2023-02-15T02:44:51;22.67;;;19.27;;
13985;SDS011;7067;51.832;8.296;2023-02-15T02:49:58;24.53;;;19.43;;
13985;SDS011;7067;51.832;8.296;2023-02-15T02:52:39;24.17;;;19.73;;
13985;SDS011;7067;51.832;8.296;2023-02-15T02:57:53;22.63;;;19.53;;
13985;SDS011;7067;51.832;8.296;2023-02-15T03:00:34;33.57;;;20.50;;
13985;SDS011;7067;51.832;8.296;2023-02-15T03:03:04;26.80;;;21.05;;
13985;SDS011;7067;51.832;8.296;2023-02-15T03:07:58;26.27;;;20.53;;
13985;SDS011;7067;51.832;8.296;2023-02-15T03:10:30;24.30;;;19.37;;
13985;SDS011;7067;51.832;8.296;2023-02-15T03:12:56;22.07;;;19.43;;
13985;SDS011;7067;51.832;8.296;2023-02-15T03:15:22;27.60;;;21.50;;
13985;SDS011;7067;51.832;8.296;2023-02-15T03:17:55;21.60;;;18.87;;
13985;SDS011;7067;51.832;8.296;2023-02-15T03:20:26;24.30;;;19.23;;
13985;SDS011;7067;51.832;8.296;2023-02-15T03:22:55;21.30;;;17.90;;
13985;SDS011;7067;51.832;8.296;2023-02-15T03:25:34;21.63;;;19.35;;
13985;SDS011;7067;51.832;8.296;2023-02-15T03:28:05;22.20;;;18.47;;
13985;SDS011;7067;51.832;8.296;2023-02-15T03:30:32;23.23;;;19.30;;
13985;SDS011;7067;51.832;8.296;2023-02-15T03:32:59;20.73;;;18.53;;
13985;SDS011;7067;51.832;8.296;2023-02-15T03:35:26;21.97;;;18.20;;
13985;SDS011;7067;51.832;8.296;2023-02-15T03:37:59;20.13;;;17.40;;
13985;SDS011;7067;51.832;8.296;2023-02-15T03:40:34;21.93;;;18.43;;
13985;SDS011;7067;51.832;8.296;2023-02-15T03:46:21;21.77;;;16.97;;
13985;SDS011;7067;51.832;8.296;2023-02-15T03:48:52;20.37;;;17.90;;
13985;SDS011;7067;51.832;8.296;2023-02-15T03:51:29;25.00;;;17.67;;
13985;SDS011;7067;51.832;8.296;2023-02-15T03:54:02;20.43;;;17.43;;
13985;SDS011;7067;51.832;8.296;2023-02-15T03:56:33;21.20;;;18.40;;
13985;SDS011;7067;51.832;8.296;2023-02-15T03:59:00;20.83;;;17.97;;
13985;SDS011;7067;51.832;8.296;2023-02-15T04:01:54;20.60;;;17.30;;
13985;SDS011;7067;51.832;8.296;2023-02-15T04:04:35;20.27;;;17.73;;
13985;SDS011;7067;51.832;8.296;2023-02-15T04:07:02;20.92;;;18.50;;
13985;SDS011;7067;51.832;8.296;2023-02-15T04:09:29;20.87;;;17.83;;
13985;SDS011;7067;51.832;8.296;2023-02-15T04:12:12;24.30;;;19.00;;
13985;SDS011;7067;51.832;8.296;2023-02-15T04:14:38;19.80;;;17.53;;
13985;SDS011;7067;51.832;8.296;2023-02-15T04:17:22;19.67;;;17.67;;
13985;SDS011;7067;51.832;8.296;2023-02-15T04:19:47;22.93;;;18.37;;
13985;SDS011;7067;51.832;8.296;2023-02-15T04:22:31;20.70;;;18.10;;
13985;SDS011;7067;51.832;8.296;2023-02-15T04:25:15;20.60;;;17.70;;
13985;SDS011;7067;51.832;8.296;2023-02-15T04:27:43;20.27;;;18.07;;
13985;SDS011;7067;51.832;8.296;2023-02-15T04:30:18;20.13;;;18.00;;
13985;SDS011;7067;51.832;8.296;2023-02-15T04:32:45;23.17;;;18.77;;
13985;SDS011;7067;51.832;8.296;2023-02-15T04:35:11;21.30;;;17.50;;
13985;SDS011;7067;51.832;8.296;2023-02-15T04:37:38;19.30;;;17.20;;
13985;SDS011;7067;51.832;8.296;2023-02-15T04:40:04;20.97;;;17.30;;
13985;SDS011;7067;51.832;8.296;2023-02-15T04:42:30;21.23;;;17.80;;
13985;SDS011;7067;51.832;8.296;2023-02-15T04:44:56;22.97;;;18.33;;
13985;SDS011;7067;51.832;8.296;2023-02-15T04:47:21;25.37;;;18.33;;
13985;SDS011;7067;51.832;8.296;2023-02-15T04:49:47;21.80;;;18.93;;
13985;SDS011;7067;51.832;8.296;2023-02-15T04:52:12;21.83;;;17.60;;
13985;SDS011;7067;51.832;8.296;2023-02-15T04:54:38;20.40;;;18.17;;
13985;SDS011;7067;51.832;8.296;2023-02-15T04:57:03;23.83;;;18.43;;
13985;SDS011;7067;51.832;8.296;2023-02-15T04:59:29;21.23;;;18.30;;
13985;SDS011;7067;51.832;8.296;2023-02-15T05:01:54;22.63;;;16.13;;
13985;SDS011;7067;51.832;8.296;2023-02-15T05:04:19;19.50;;;16.77;;
13985;SDS011;7067;51.832;8.296;2023-02-15T05:06:45;19.70;;;17.60;;
13985;SDS011;7067;51.832;8.296;2023-02-15T05:09:11;20.37;;;17.07;;
13985;SDS011;7067;51.832;8.296;2023-02-15T05:11:36;19.50;;;17.40;;
13985;SDS011;7067;51.832;8.296;2023-02-15T05:14:02;22.63;;;17.50;;
13985;SDS011;7067;51.832;8.296;2023-02-15T05:16:27;21.83;;;18.33;;
13985;SDS011;7067;51.832;8.296;2023-02-15T05:18:53;20.20;;;17.00;;
13985;SDS011;7067;51.832;8.296;2023-02-15T05:21:18;21.93;;;17.70;;
13985;SDS011;7067;51.832;8.296;2023-02-15T05:23:43;20.37;;;17.43;;
13985;SDS011;7067;51.832;8.296;2023-02-15T05:26:12;20.00;;;17.60;;
13985;SDS011;7067;51.832;8.296;2023-02-15T05:29:00;19.60;;;17.47;;
13985;SDS011;7067;51.832;8.296;2023-02-15T05:31:25;20.87;;;17.20;;
13985;SDS011;7067;51.832;8.296;2023-02-15T05:33:51;21.93;;;18.27;;
13985;SDS011;7067;51.832;8.296;2023-02-15T05:36:16;25.03;;;18.37;;
13985;SDS011;7067;51.832;8.296;2023-02-15T05:38:41;22.50;;;17.90;;
13985;SDS011;7067;51.832;8.296;2023-02-15T05:41:07;19.27;;;16.93;;
13985;SDS011;7067;51.832;8.296;2023-02-15T05:43:34;22.03;;;18.80;;
13985;SDS011;7067;51.832;8.296;2023-02-15T05:45:59;20.30;;;18.20;;
13985;SDS011;7067;51.832;8.296;2023-02-15T05:48:25;21.77;;;17.80;;
13985;SDS011;7067;51.832;8.296;2023-02-15T05:51:02;22.17;;;18.10;;
13985;SDS011;7067;51.832;8.296;2023-02-15T05:53:28;23.87;;;18.83;;
13985;SDS011;7067;51.832;8.296;2023-02-15T05:55:54;21.07;;;17.73;;
13985;SDS011;7067;51.832;8.296;2023-02-15T05:58:24;22.70;;;18.58;;
13985;SDS011;7067;51.832;8.296;2023-02-15T06:00:53;20.25;;;18.08;;
13985;SDS011;7067;51.832;8.296;2023-02-15T06:03:18;21.00;;;17.70;;
13985;SDS011;7067;51.832;8.296;2023-02-15T06:05:44;24.73;;;18.20;;
13985;SDS011;7067;51.832;8.296;2023-02-15T06:08:09;25.30;;;20.07;;
13985;SDS011;7067;51.832;8.296;2023-02-15T06:10:34;21.57;;;18.47;;
13985;SDS011;7067;51.832;8.296;2023-02-15T06:13:00;19.70;;;17.43;;
13985;SDS011;7067;51.832;8.296;2023-02-15T06:15:25;25.07;;;20.70;;
13985;SDS011;7067;51.832;8.296;2023-02-15T06:17:51;22.93;;;18.30;;
13985;SDS011;7067;51.832;8.296;2023-02-15T06:20:16;24.77;;;19.47;;
13985;SDS011;7067;51.832;8.296;2023-02-15T06:22:42;22.93;;;17.40;;
13985;SDS011;7067;51.832;8.296;2023-02-15T06:25:07;22.30;;;19.20;;
13985;SDS011;7067;51.832;8.296;2023-02-15T06:27:35;22.73;;;18.33;;
13985;SDS011;7067;51.832;8.296;2023-02-15T06:30:00;21.20;;;17.77;;
13985;SDS011;7067;51.832;8.296;2023-02-15T06:32:26;20.13;;;16.80;;
13985;SDS011;7067;51.832;8.296;2023-02-15T06:34:51;21.77;;;18.57;;
13985;SDS011;7067;51.832;8.296;2023-02-15T06:37:16;23.13;;;18.40;;
13985;SDS011;7067;51.832;8.296;2023-02-15T06:39:42;24.87;;;19.77;;
13985;SDS011;7067;51.832;8.296;2023-02-15T06:42:07;20.00;;;17.90;;
13985;SDS011;7067;51.832;8.296;2023-02-15T06:44:33;25.23;;;19.63;;
13985;SDS011;7067;51.832;8.296;2023-02-15T06:46:58;22.23;;;18.80;;
13985;SDS011;7067;51.832;8.296;2023-02-15T06:49:23;26.07;;;19.03;;
13985;SDS011;7067;51.832;8.296;2023-02-15T06:51:49;23.37;;;18.57;;
13985;SDS011;7067;51.832;8.296;2023-02-15T06:54:14;22.73;;;19.43;;
13985;SDS011;7067;51.832;8.296;2023-02-15T06:56:39;28.77;;;20.20;;
13985;SDS011;7067;51.832;8.296;2023-02-15T06:59:05;25.53;;;19.60;;
13985;SDS011;7067;51.832;8.296;2023-02-15T07:01:30;21.33;;;17.87;;
13985;SDS011;7067;51.832;8.296;2023-02-15T07:03:55;22.07;;;18.40;;
13985;SDS011;7067;51.832;8.296;2023-02-15T07:06:21;19.87;;;17.13;;
13985;SDS011;7067;51.832;8.296;2023-02-15T07:08:46;19.57;;;16.93;;
13985;SDS011;7067;51.832;8.296;2023-02-15T07:11:11;19.17;;;17.00;;
13985;SDS011;7067;51.832;8.296;2023-02-15T07:14:00;21.17;;;17.40;;
13985;SDS011;7067;51.832;8.296;2023-02-15T07:16:25;23.47;;;19.40;;
13985;SDS011;7067;51.832;8.296;2023-02-15T07:18:50;22.33;;;17.57;;
13985;SDS011;7067;51.832;8.296;2023-02-15T07:21:15;20.70;;;17.97;;
13985;SDS011;7067;51.832;8.296;2023-02-15T07:23:41;20.97;;;18.10;;
13985;SDS011;7067;51.832;8.296;2023-02-15T07:26:06;26.97;;;20.07;;
13985;SDS011;7067;51.832;8.296;2023-02-15T07:28:35;27.43;;;18.23;;
13985;SDS011;7067;51.832;8.296;2023-02-15T07:31:01;21.80;;;17.47;;
13985;SDS011;7067;51.832;8.296;2023-02-15T07:33:29;24.53;;;18.30;;
13985;SDS011;7067;51.832;8.296;2023-02-15T07:35:56;21.23;;;17.57;;
13985;SDS011;7067;51.832;8.296;2023-02-15T07:38:23;26.70;;;19.30;;
13985;SDS011;7067;51.832;8.296;2023-02-15T07:40:49;21.60;;;18.07;;
13985;SDS011;7067;51.832;8.296;2023-02-15T07:43:15;23.13;;;18.90;;
13985;SDS011;7067;51.832;8.296;2023-02-15T07:45:40;22.77;;;17.93;;
13985;SDS011;7067;51.832;8.296;2023-02-15T07:48:06;24.63;;;19.00;;
13985;SDS011;7067;51.832;8.296;2023-02-15T07:50:31;27.40;;;19.80;;
13985;SDS011;7067;51.832;8.296;2023-02-15T07:52:57;23.03;;;18.67;;
13985;SDS011;7067;51.832;8.296;2023-02-15T07:55:23;27.97;;;19.83;;
13985;SDS011;7067;51.832;8.296;2023-02-15T07:57:49;22.57;;;19.10;;
13985;SDS011;7067;51.832;8.296;2023-02-15T08:00:16;25.03;;;20.60;;
13985;SDS011;7067;51.832;8.296;2023-02-15T08:02:49;23.00;;;18.63;;
13985;SDS011;7067;51.832;8.296;2023-02-15T08:05:35;26.27;;;19.83;;
13985;SDS011;7067;51.832;8.296;2023-02-15T08:08:01;24.40;;;19.77;;
13985;SDS011;7067;51.832;8.296;2023-02-15T08:10:26;22.23;;;18.20;;
13985;SDS011;7067;51.832;8.296;2023-02-15T08:13:11;25.30;;;19.37;;
13985;SDS011;7067;51.832;8.296;2023-02-15T08:15:37;25.30;;;19.27;;
13985;SDS011;7067;51.832;8.296;2023-02-15T08:18:02;21.50;;;17.70;;
13985;SDS011;7067;51.832;8.296;2023-02-15T08:20:28;35.27;;;20.67;;
13985;SDS011;7067;51.832;8.296;2023-02-15T08:22:53;20.43;;;18.03;;
13985;SDS011;7067;51.832;8.296;2023-02-15T08:25:18;22.97;;;19.60;;
13985;SDS011;7067;51.832;8.296;2023-02-15T08:27:43;21.67;;;18.40;;
13985;SDS011;7067;51.832;8.296;2023-02-15T08:30:09;24.47;;;18.87;;
13985;SDS011;7067;51.832;8.296;2023-02-15T08:32:35;23.50;;;17.87;;
13985;SDS011;7067;51.832;8.296;2023-02-15T08:35:00;22.70;;;18.30;;
13985;SDS011;7067;51.832;8.296;2023-02-15T08:37:25;21.17;;;18.03;;
13985;SDS011;7067;51.832;8.296;2023-02-15T08:39:51;30.23;;;20.30;;
13985;SDS011;7067;51.832;8.296;2023-02-15T08:42:16;22.27;;;17.90;;
13985;SDS011;7067;51.832;8.296;2023-02-15T08:44:42;20.47;;;18.10;;
13985;SDS011;7067;51.832;8.296;2023-02-15T08:47:07;21.33;;;18.20;;
13985;SDS011;7067;51.832;8.296;2023-02-15T08:49:33;24.67;;;18.83;;
13985;SDS011;7067;51.832;8.296;2023-02-15T08:51:58;20.57;;;16.70;;
13985;SDS011;7067;51.832;8.296;2023-02-15T08:54:24;21.10;;;18.10;;
13985;SDS011;7067;51.832;8.296;2023-02-15T08:56:50;21.17;;;17.57;;
13985;SDS011;7067;51.832;8.296;2023-02-15T08:59:16;23.67;;;17.80;;
13985;SDS011;7067;51.832;8.296;2023-02-15T09:01:43;23.13;;;18.33;;
13985;SDS011;7067;51.832;8.296;2023-02-15T09:04:09;21.27;;;16.80;;
13985;SDS011;7067;51.832;8.296;2023-02-15T09:06:35;18.67;;;16.53;;
13985;SDS011;7067;51.832;8.296;2023-02-15T09:09:02;26.03;;;17.63;;
13985;SDS011;7067;51.832;8.296;2023-02-15T09:11:29;23.27;;;17.67;;
13985;SDS011;7067;51.832;8.296;2023-02-15T09:13:56;21.63;;;16.97;;
13985;SDS011;7067;51.832;8.296;2023-02-15T09:16:30;19.20;;;16.60;;
13985;SDS011;7067;51.832;8.296;2023-02-15T09:18:56;30.40;;;18.50;;
13985;SDS011;7067;51.832;8.296;2023-02-15T09:21:22;20.53;;;16.80;;
13985;SDS011;7067;51.832;8.296;2023-02-15T09:23:49;20.97;;;15.43;;
13985;SDS011;7067;51.832;8.296;2023-02-15T09:26:16;20.90;;;15.83;;
13985;SDS011;7067;51.832;8.296;2023-02-15T09:28:43;19.93;;;17.30;;
13985;SDS011;7067;51.832;8.296;2023-02-15T09:33:36;19.33;;;15.67;;
13985;SDS011;7067;51.832;8.296;2023-02-15T09:36:02;24.97;;;17.70;;
13985;SDS011;7067;51.832;8.296;2023-02-15T09:38:29;21.37;;;16.57;;
13985;SDS011;7067;51.832;8.296;2023-02-15T10:00:16;19.37;;;16.63;;
13985;SDS011;7067;51.832;8.296;2023-02-15T10:08:48;22.40;;;16.80;;
13985;SDS011;7067;51.832;8.296;2023-02-15T10:20:06;21.53;;;17.03;;
13985;SDS011;7067;51.832;8.296;2023-02-15T10:22:41;25.37;;;18.33;;
13985;SDS011;7067;51.832;8.296;2023-02-15T10:27:45;22.97;;;16.17;;
13985;SDS011;7067;51.832;8.296;2023-02-15T10:30:23;33.03;;;17.77;;
13985;SDS011;7067;51.832;8.296;2023-02-15T10:32:58;21.50;;;14.87;;
13985;SDS011;7067;51.832;8.296;2023-02-15T10:35:47;21.60;;;15.47;;
13985;SDS011;7067;51.832;8.296;2023-02-15T10:38:30;18.30;;;14.60;;
13985;SDS011;7067;51.832;8.296;2023-02-15T11:00:32;19.93;;;13.90;;
13985;SDS011;7067;51.832;8.296;2023-02-15T11:08:14;28.37;;;15.13;;
13985;SDS011;7067;51.832;8.296;2023-02-15T11:10:44;25.40;;;14.33;;
13985;SDS011;7067;51.832;8.296;2023-02-15T11:13:17;25.80;;;15.57;;
13985;SDS011;7067;51.832;8.296;2023-02-15T11:15:45;27.60;;;15.57;;
13985;SDS011;7067;51.832;8.296;2023-02-15T11:18:36;19.60;;;14.87;;
13985;SDS011;7067;51.832;8.296;2023-02-15T11:21:07;19.13;;;14.23;;
13985;SDS011;7067;51.832;8.296;2023-02-15T11:23:40;31.43;;;14.73;;
13985;SDS011;7067;51.832;8.296;2023-02-15T11:26:29;18.67;;;15.60;;
13985;SDS011;7067;51.832;8.296;2023-02-15T11:28:58;21.93;;;14.37;;
13985;SDS011;7067;51.832;8.296;2023-02-15T11:33:58;17.75;;;13.82;;
13985;SDS011;7067;51.832;8.296;2023-02-15T11:36:27;17.00;;;14.17;;
13985;SDS011;7067;51.832;8.296;2023-02-15T11:38:58;21.80;;;15.10;;
13985;SDS011;7067;51.832;8.296;2023-02-15T11:41:28;32.30;;;15.98;;
13985;SDS011;7067;51.832;8.296;2023-02-15T11:43:57;75.13;;;24.38;;
13985;SDS011;7067;51.832;8.296;2023-02-15T11:46:26;24.45;;;15.95;;
13985;SDS011;7067;51.832;8.296;2023-02-15T11:48:51;59.30;;;18.92;;
13985;SDS011;7067;51.832;8.296;2023-02-15T11:51:17;20.88;;;16.13;;
13985;SDS011;7067;51.832;8.296;2023-02-15T11:53:44;64.95;;;20.92;;
13985;SDS011;7067;51.832;8.296;2023-02-15T11:56:17;52.92;;;17.85;;
13985;SDS011;7067;51.832;8.296;2023-02-15T11:58:54;52.50;;;17.65;;
13985;SDS011;7067;51.832;8.296;2023-02-15T12:01:34;40.22;;;16.30;;
13985;SDS011;7067;51.832;8.296;2023-02-15T12:06:32;26.48;;;16.65;;
13985;SDS011;7067;51.832;8.296;2023-02-15T12:11:34;79.85;;;24.65;;
13985;SDS011;7067;51.832;8.296;2023-02-15T12:14:04;58.15;;;19.45;;
13985;SDS011;7067;51.832;8.296;2023-02-15T12:16:43;45.72;;;18.67;;
13985;SDS011;7067;51.832;8.296;2023-02-15T12:22:02;66.90;;;21.35;;
13985;SDS011;7067;51.832;8.296;2023-02-15T12:27:02;64.78;;;24.63;;
13985;SDS011;7067;51.832;8.296;2023-02-15T12:29:30;48.80;;;19.30;;
13985;SDS011;7067;51.832;8.296;2023-02-15T12:32:11;70.53;;;24.67;;
13985;SDS011;7067;51.832;8.296;2023-02-15T12:34:43;69.15;;;21.10;;
13985;SDS011;7067;51.832;8.296;2023-02-15T12:37:20;76.68;;;26.45;;
13985;SDS011;7067;51.832;8.296;2023-02-15T12:39:52;67.80;;;22.38;;
13985;SDS011;7067;51.832;8.296;2023-02-15T12:42:24;55.85;;;21.23;;
13985;SDS011;7067;51.832;8.296;2023-02-15T12:45:08;70.68;;;31.58;;
13985;SDS011;7067;51.832;8.296;2023-02-15T12:47:45;61.72;;;22.63;;
13985;SDS011;7067;51.832;8.296;2023-02-15T12:52:47;70.63;;;23.52;;
13985;SDS011;7067;51.832;8.296;2023-02-15T12:57:47;71.35;;;24.25;;
13985;SDS011;7067;51.832;8.296;2023-02-15T13:02:47;47.80;;;19.13;;
13985;SDS011;7067;51.832;8.296;2023-02-15T13:10:39;77.55;;;27.02;;
13985;SDS011;7067;51.832;8.296;2023-02-15T13:13:16;28.52;;;18.27;;
13985;SDS011;7067;51.832;8.296;2023-02-15T13:15:46;46.20;;;19.85;;
13985;SDS011;7067;51.832;8.296;2023-02-15T13:18:16;72.22;;;27.42;;
13985;SDS011;7067;51.832;8.296;2023-02-15T13:20:44;53.00;;;21.42;;
13985;SDS011;7067;51.832;8.296;2023-02-15T13:23:28;70.53;;;23.00;;
13985;SDS011;7067;51.832;8.296;2023-02-15T13:26:02;74.18;;;31.35;;
13985;SDS011;7067;51.832;8.296;2023-02-15T13:29:04;72.90;;;28.08;;
13985;SDS011;7067;51.832;8.296;2023-02-15T13:31:23;72.30;;;31.98;;
13985;SDS011;7067;51.832;8.296;2023-02-15T13:33:54;50.00;;;20.92;;
13985;SDS011;7067;51.832;8.296;2023-02-15T13:41:40;52.47;;;18.70;;
13985;SDS011;7067;51.832;8.296;2023-02-15T13:46:54;64.10;;;26.05;;
13985;SDS011;7067;51.832;8.296;2023-02-15T13:49:43;72.70;;;28.92;;
13985;SDS011;7067;51.832;8.296;2023-02-15T13:54:47;62.60;;;20.67;;
13985;SDS011;7067;51.832;8.296;2023-02-15T14:08:11;48.33;;;18.05;;
13985;SDS011;7067;51.832;8.296;2023-02-15T14:17:06;35.65;;;17.60;;
13985;SDS011;7067;51.832;8.296;2023-02-15T14:22:38;83.35;;;28.20;;
13985;SDS011;7067;51.832;8.296;2023-02-15T14:25:25;90.50;;;32.63;;
13985;SDS011;7067;51.832;8.296;2023-02-15T14:30:20;44.28;;;19.42;;
13985;SDS011;7067;51.832;8.296;2023-02-15T14:32:49;77.13;;;22.23;;
13985;SDS011;7067;51.832;8.296;2023-02-15T14:35:18;42.15;;;17.02;;
13985;SDS011;7067;51.832;8.296;2023-02-15T14:37:55;22.35;;;15.35;;
13985;SDS011;7067;51.832;8.296;2023-02-15T14:40:27;60.67;;;20.42;;
13985;SDS011;7067;51.832;8.296;2023-02-15T14:43:42;39.85;;;16.73;;
13985;SDS011;7067;51.832;8.296;2023-02-15T14:56:44;65.80;;;21.70;;
13985;SDS011;7067;51.832;8.296;2023-02-15T15:01:38;66.93;;;23.75;;
13985;SDS011;7067;51.832;8.296;2023-02-15T15:04:05;67.15;;;26.58;;
13985;SDS011;7067;51.832;8.296;2023-02-15T15:06:36;68.90;;;22.13;;
13985;SDS011;7067;51.832;8.296;2023-02-15T15:11:37;42.20;;;19.33;;
13985;SDS011;7067;51.832;8.296;2023-02-15T15:14:07;60.20;;;23.08;;
13985;SDS011;7067;51.832;8.296;2023-02-15T15:19:02;71.40;;;25.50;;
13985;SDS011;7067;51.832;8.296;2023-02-15T15:25:40;65.57;;;20.88;;
13985;SDS011;7067;51.832;8.296;2023-02-15T15:38:03;67.65;;;26.85;;
13985;SDS011;7067;51.832;8.296;2023-02-15T15:40:42;67.75;;;22.65;;
13985;SDS011;7067;51.832;8.296;2023-02-15T15:46:03;78.35;;;20.65;;
13985;SDS011;7067;51.832;8.296;2023-02-15T15:51:10;22.15;;;15.70;;
13985;SDS011;7067;51.832;8.296;2023-02-15T15:53:50;67.68;;;23.10;;
13985;SDS011;7067;51.832;8.296;2023-02-15T15:56:22;62.10;;;19.73;;
13985;SDS011;7067;51.832;8.296;2023-02-15T15:59:02;47.00;;;18.85;;
13985;SDS011;7067;51.832;8.296;2023-02-15T16:01:37;49.60;;;17.92;;
13985;SDS011;7067;51.832;8.296;2023-02-15T16:04:05;69.05;;;24.02;;
13985;SDS011;7067;51.832;8.296;2023-02-15T16:06:34;82.07;;;24.50;;
13985;SDS011;7067;51.832;8.296;2023-02-15T16:11:36;71.75;;;24.35;;
13985;SDS011;7067;51.832;8.296;2023-02-15T16:14:08;35.80;;;18.23;;
13985;SDS011;7067;51.832;8.296;2023-02-15T16:16:46;36.05;;;17.35;;
13985;SDS011;7067;51.832;8.296;2023-02-15T16:19:19;70.63;;;23.38;;
13985;SDS011;7067;51.832;8.296;2023-02-15T16:21:46;72.55;;;27.05;;
13985;SDS011;7067;51.832;8.296;2023-02-15T16:24:26;37.55;;;18.00;;
13985;SDS011;7067;51.832;8.296;2023-02-15T16:29:36;38.50;;;19.42;;
13985;SDS011;7067;51.832;8.296;2023-02-15T16:32:03;90.70;;;23.73;;
13985;SDS011;7067;51.832;8.296;2023-02-15T16:34:30;45.97;;;19.13;;
13985;SDS011;7067;51.832;8.296;2023-02-15T16:37:16;92.40;;;25.35;;
13985;SDS011;7067;51.832;8.296;2023-02-15T16:39:43;47.00;;;19.98;;
13985;SDS011;7067;51.832;8.296;2023-02-15T16:42:13;29.48;;;19.17;;
13985;SDS011;7067;51.832;8.296;2023-02-15T16:44:40;24.65;;;17.50;;
13985;SDS011;7067;51.832;8.296;2023-02-15T16:47:08;79.63;;;22.92;;
13985;SDS011;7067;51.832;8.296;2023-02-15T16:49:39;80.43;;;22.45;;
13985;SDS011;7067;51.832;8.296;2023-02-15T16:52:10;29.02;;;19.05;;
13985;SDS011;7067;51.832;8.296;2023-02-15T16:54:40;27.63;;;20.45;;
13985;SDS011;7067;51.832;8.296;2023-02-15T16:57:13;31.52;;;20.80;;
13985;SDS011;7067;51.832;8.296;2023-02-15T16:59:41;63.38;;;23.42;;
13985;SDS011;7067;51.832;8.296;2023-02-15T17:02:17;77.45;;;29.15;;
13985;SDS011;7067;51.832;8.296;2023-02-15T17:04:44;34.13;;;22.58;;
13985;SDS011;7067;51.832;8.296;2023-02-15T17:07:17;111.05;;;28.98;;
13985;SDS011;7067;51.832;8.296;2023-02-15T17:09:50;56.50;;;23.35;;
13985;SDS011;7067;51.832;8.296;2023-02-15T17:16:06;79.32;;;28.13;;
13985;SDS011;7067;51.832;8.296;2023-02-15T17:18:01;42.97;;;24.25;;
13985;SDS011;7067;51.832;8.296;2023-02-15T17:20:31;32.08;;;19.73;;
13985;SDS011;7067;51.832;8.296;2023-02-15T17:22:57;83.10;;;24.08;;
13985;SDS011;7067;51.832;8.296;2023-02-15T17:25:26;29.15;;;20.40;;
13985;SDS011;7067;51.832;8.296;2023-02-15T17:28:03;34.92;;;21.08;;
13985;SDS011;7067;51.832;8.296;2023-02-15T17:30:33;33.47;;;19.83;;
13985;SDS011;7067;51.832;8.296;2023-02-15T17:33:00;37.58;;;19.38;;
13985;SDS011;7067;51.832;8.296;2023-02-15T17:35:28;38.10;;;21.23;;
13985;SDS011;7067;51.832;8.296;2023-02-15T17:38:41;28.83;;;19.38;;
13985;SDS011;7067;51.832;8.296;2023-02-15T17:40:42;31.33;;;19.70;;
13985;SDS011;7067;51.832;8.296;2023-02-15T17:43:07;29.25;;;18.45;;
13985;SDS011;7067;51.832;8.296;2023-02-15T17:45:38;85.20;;;21.65;;
13985;SDS011;7067;51.832;8.296;2023-02-15T17:48:09;23.88;;;18.30;;
13985;SDS011;7067;51.832;8.296;2023-02-15T17:50:41;23.40;;;18.10;;
13985;SDS011;7067;51.832;8.296;2023-02-15T17:53:07;74.28;;;20.75;;
13985;SDS011;7067;51.832;8.296;2023-02-15T17:55:33;26.92;;;17.20;;
13985;SDS011;7067;51.832;8.296;2023-02-15T17:58:15;70.93;;;20.83;;
13985;SDS011;7067;51.832;8.296;2023-02-15T18:00:54;29.45;;;18.88;;
13985;SDS011;7067;51.832;8.296;2023-02-15T18:03:40;23.83;;;17.48;;
13985;SDS011;7067;51.832;8.296;2023-02-15T18:06:25;34.28;;;18.33;;
13985;SDS011;7067;51.832;8.296;2023-02-15T18:09:13;21.83;;;17.75;;
13985;SDS011;7067;51.832;8.296;2023-02-15T18:11:59;25.40;;;18.70;;
13985;SDS011;7067;51.832;8.296;2023-02-15T18:14:24;74.40;;;21.70;;